createdAt,value
2019-01-24T00:00:27.544Z,100043.97
2019-01-24T00:02:56.132Z,100049.55
2019-01-24T00:05:24.622Z,100051.31
2019-01-24T00:07:53.507Z,100052.64
2019-01-24T00:10:22.063Z,100067.22
2019-01-24T00:12:54.483Z,100067.70
2019-01-24T00:15:23.000Z,100067.70
2019-01-24T00:17:51.482Z,100066.45
2019-01-24T00:20:20.024Z,100069.42
2019-01-24T00:22:48.469Z,100071.19
2019-01-24T00:25:16.996Z,100071.52
2019-01-24T00:27:45.430Z,100070.64
2019-01-24T00:30:15.534Z,100078.83
2019-01-24T00:32:44.208Z,100079.67
2019-01-24T00:35:13.378Z,100082.73
2019-01-24T00:37:41.863Z,100087.42
2019-01-24T00:40:21.195Z,100089.59
2019-01-24T00:42:49.778Z,100088.31
2019-01-24T00:45:18.467Z,100089.97
2019-01-24T00:47:47.032Z,100089.89
2019-01-24T00:50:16.519Z,100086.84
2019-01-24T00:52:45.014Z,100094.48
2019-01-24T00:55:14.993Z,100104.33
2019-01-24T00:57:43.633Z,100100.84
2019-01-24T01:00:18.068Z,100108.19
2019-01-24T01:02:46.742Z,100101.31
2019-01-24T01:05:16.435Z,100107.70
2019-01-24T01:07:45.175Z,100106.45
2019-01-24T01:10:14.922Z,100109.80
2019-01-24T01:12:43.534Z,100109.80
2019-01-24T01:15:15.983Z,100112.44
2019-01-24T01:17:45.172Z,100118.47
2019-01-24T01:20:16.595Z,100121.84
2019-01-24T01:22:45.108Z,100125.27
2019-01-24T01:25:13.737Z,100128.31
2019-01-24T01:27:42.342Z,100129.48
2019-01-24T01:30:23.564Z,100127.31
2019-01-24T01:32:52.744Z,100126.83
2019-01-24T01:35:21.237Z,100137.11
2019-01-24T01:37:49.842Z,100139.69
2019-01-24T01:40:19.720Z,100134.90
2019-01-24T01:42:48.608Z,100138.75
2019-01-24T01:45:19.808Z,100145.58
2019-01-24T01:47:48.384Z,100145.09
2019-01-24T01:50:19.071Z,100140.80
2019-01-24T01:52:47.541Z,100145.50
2019-01-24T01:55:17.205Z,100148.47
2019-01-24T01:57:45.921Z,100150.20
2019-01-24T02:00:19.825Z,100152.81
2019-01-24T02:02:48.504Z,100155.86
2019-01-24T02:05:17.101Z,100160.48
2019-01-24T02:07:45.689Z,100164.25
2019-01-24T02:10:16.937Z,100155.70
2019-01-24T02:12:45.533Z,100165.22
2019-01-24T02:15:15.597Z,100160.56
2019-01-24T02:17:44.394Z,100155.78
2019-01-24T02:20:18.762Z,100157.43
2019-01-24T02:22:47.382Z,100152.24
2019-01-24T02:25:16.029Z,100155.30
2019-01-24T02:27:44.613Z,100161.33
2019-01-24T02:30:16.423Z,100162.13
2019-01-24T02:32:44.983Z,100170.68
2019-01-24T02:35:13.686Z,100167.75
2019-01-24T02:37:42.109Z,100169.53
2019-01-24T02:40:11.017Z,100171.64
2019-01-24T02:42:39.466Z,100172.98
2019-01-24T02:45:14.090Z,100175.37
2019-01-24T02:47:42.610Z,100180.42
2019-01-24T02:50:14.271Z,100179.14
2019-01-24T02:52:42.816Z,100173.20
2019-01-24T02:55:14.130Z,100179.19
2019-01-24T02:57:42.672Z,100180.88
2019-01-24T03:00:14.212Z,100176.58
2019-01-24T03:02:44.127Z,100165.45
2019-01-24T03:05:15.516Z,100174.92
2019-01-24T03:07:44.059Z,100169.39
2019-01-24T03:10:14.379Z,100168.55
2019-01-24T03:12:43.040Z,100173.56
2019-01-24T03:15:13.829Z,100171.83
2019-01-24T03:17:42.516Z,100173.16
2019-01-24T03:20:12.600Z,100171.88
2019-01-24T03:22:41.278Z,100172.31
2019-01-24T03:25:11.860Z,100180.52
2019-01-24T03:27:40.350Z,100174.14
2019-01-24T03:30:12.155Z,100184.50
2019-01-24T03:32:40.669Z,100189.24
2019-01-24T03:35:12.428Z,100179.80
2019-01-24T03:37:41.367Z,100183.62
2019-01-24T03:40:12.825Z,100188.23
2019-01-24T03:42:41.359Z,100190.26
2019-01-24T03:45:13.988Z,100190.22
2019-01-24T03:47:42.521Z,100194.96
2019-01-24T03:50:16.314Z,100188.89
2019-01-24T03:52:44.893Z,100198.23
2019-01-24T03:55:15.252Z,100198.19
2019-01-24T03:57:43.783Z,100197.78
2019-01-24T04:00:15.337Z,100195.61
2019-01-24T04:02:43.943Z,100201.95
2019-01-24T04:05:13.107Z,100211.38
2019-01-24T04:07:41.635Z,100210.89
2019-01-24T04:10:15.557Z,100205.36
2019-01-24T04:12:44.146Z,100215.19
2019-01-24T04:15:15.310Z,100216.48
2019-01-24T04:17:43.758Z,100218.21
2019-01-24T04:20:12.609Z,100226.76
2019-01-24T04:22:41.198Z,100221.91
2019-01-24T04:25:09.949Z,100226.70
2019-01-24T04:27:38.418Z,100223.39
2019-01-24T04:30:12.611Z,100229.77
2019-01-24T04:32:41.028Z,100245.18
2019-01-24T04:35:10.932Z,100240.00
2019-01-24T04:37:39.339Z,100240.39
2019-01-24T04:40:10.757Z,100237.32
2019-01-24T04:42:39.239Z,100236.84
2019-01-24T04:45:10.481Z,100239.05
2019-01-24T04:47:38.976Z,100239.41
2019-01-24T04:50:10.582Z,100241.63
2019-01-24T04:52:39.007Z,100252.34
2019-01-24T04:55:10.410Z,100248.49
2019-01-24T04:57:38.887Z,100252.40
2019-01-24T05:00:10.384Z,100249.83
2019-01-24T05:02:38.834Z,100259.61
2019-01-24T05:05:07.452Z,100257.73
2019-01-24T05:07:35.939Z,100263.55
2019-01-24T05:10:06.957Z,100266.06
2019-01-24T05:12:35.462Z,100270.31
2019-01-24T05:15:04.749Z,100266.36
2019-01-24T05:17:33.163Z,100269.83
2019-01-24T05:20:01.697Z,100264.79
2019-01-24T05:22:30.196Z,100260.14
2019-01-24T05:24:58.615Z,100267.46
2019-01-24T05:27:27.139Z,100271.76
2019-01-24T05:29:55.560Z,100269.25
2019-01-24T05:32:24.004Z,100266.32
2019-01-24T05:34:54.159Z,100271.41
2019-01-24T05:37:22.605Z,100270.97
2019-01-24T05:39:51.116Z,100271.36
2019-01-24T05:42:19.592Z,100276.05
2019-01-24T05:44:47.994Z,100272.55
2019-01-24T05:47:16.527Z,100269.58
2019-01-24T05:49:44.954Z,100265.73
2019-01-24T05:52:19.394Z,100276.39
2019-01-24T05:54:45.260Z,100269.92
2019-01-24T05:57:13.662Z,100269.48
2019-01-24T05:59:42.086Z,100266.52
2019-01-24T06:02:12.520Z,100272.66
2019-01-24T06:04:42.141Z,100272.74
2019-01-24T06:07:13.322Z,100272.70
2019-01-24T06:09:44.974Z,100268.79
2019-01-24T06:12:14.742Z,100276.06
2019-01-24T06:14:47.668Z,100275.11
2019-01-24T06:17:16.209Z,100275.39
2019-01-24T06:19:44.819Z,100272.84
2019-01-24T06:22:13.366Z,100278.42
2019-01-24T06:24:41.919Z,100285.78
2019-01-24T06:27:10.346Z,100291.76
2019-01-24T06:29:38.861Z,100290.72
2019-01-24T06:32:07.530Z,100286.30
2019-01-24T06:34:37.043Z,100294.45
2019-01-24T06:37:05.528Z,100303.54
